KOMA/OMA METAR and TAF weather

Enter ICAO airport designator
Station Type Date Time Source
KOMA METAR 2022/01/18 07:52 UTC NOAA

KOMA 180752Z 15009KT 10SM CLR M04/M06 A2975 RMK AO2 SLP084 T10391056


Station Type Date Time Source
KOMA Decoded METAR 2022/01/18 07:52 UTC NOAA

OMAHA EPPLEY AIRFIELD, NE, United States (KOMA) 41-18N 095-54W 312M
Jan 18, 2022 - 02:52 AM EST / 2022.01.18 0752 UTC
Wind: from the SSE (150 degrees) at 10 MPH (9 KT):0
Visibility: 10 mile(s):0
Sky conditions: clear
Temperature: 25.0 F (-3.9 C)
Windchill: 15 F (-9 C):1
Dew Point: 21.9 F (-5.6 C)
Relative Humidity: 87%
Pressure (altimeter): 29.75 in. Hg (1007 hPa)
ob: KOMA 180752Z 15009KT 10SM CLR M04/M06 A2975 RMK AO2 SLP084 T10391056
cycle: 8

Station Type Date Time Source
KOMA TAF 2022/01/18 06:22 UTC NOAA

TAF KOMA 180520Z 1806/1906 16007KT P6SM SCT250
FM181300 17005KT P6SM BKN250
FM182000 26006KT P6SM BKN150
FM182300 34010KT P6SM BKN120
FM190200 35017G26KT P6SM FEW025 OVC100

Example: see airport list